createdAt,value
2019-04-30T00:00:43.100Z,66.70
2019-04-30T00:03:19.525Z,66.80
2019-04-30T00:05:49.427Z,66.90
2019-04-30T00:08:19.483Z,66.90
2019-04-30T00:10:48.974Z,66.90
2019-04-30T00:13:21.004Z,66.90
2019-04-30T00:15:52.696Z,67.00
2019-04-30T00:18:20.823Z,67.10
2019-04-30T00:20:50.865Z,67.20
2019-04-30T00:23:41.589Z,67.20
2019-04-30T00:26:10.541Z,67.20
2019-04-30T00:28:44.383Z,66.80
2019-04-30T00:31:11.079Z,66.70
2019-04-30T00:33:40.483Z,67.00
2019-04-30T00:36:09.917Z,67.20
2019-04-30T00:38:39.363Z,67.20
2019-04-30T00:44:19.894Z,67.50
2019-04-30T00:46:48.257Z,67.50
2019-04-30T00:49:22.856Z,67.60
2019-04-30T00:51:49.808Z,67.70
2019-04-30T00:54:22.373Z,67.90
2019-04-30T00:56:51.366Z,67.90
2019-04-30T00:59:20.739Z,67.80
2019-04-30T01:01:56.340Z,67.90
2019-04-30T01:04:30.096Z,67.90
2019-04-30T01:07:00.288Z,67.90
2019-04-30T01:09:30.816Z,67.90
2019-04-30T01:12:00.068Z,67.90
2019-04-30T01:14:31.964Z,68.10
2019-04-30T01:17:03.690Z,68.20
2019-04-30T01:19:32.910Z,68.20
2019-04-30T01:22:02.344Z,68.30
2019-04-30T01:24:31.842Z,68.30
2019-04-30T01:27:06.752Z,68.40
2019-04-30T01:29:38.053Z,68.60
2019-04-30T01:32:03.811Z,68.60
2019-04-30T01:34:33.596Z,68.70
2019-04-30T01:37:02.896Z,68.70
2019-04-30T01:39:32.279Z,68.70
2019-04-30T01:42:02.862Z,68.80
2019-04-30T01:44:33.081Z,68.90
2019-04-30T01:47:02.349Z,69.00
2019-04-30T01:49:41.729Z,69.00
2019-04-30T01:52:02.687Z,69.20
2019-04-30T01:54:31.851Z,69.30
2019-04-30T01:57:05.507Z,69.40
2019-04-30T01:59:36.409Z,69.50
2019-04-30T02:02:06.068Z,69.50
2019-04-30T02:04:35.501Z,69.50
2019-04-30T02:07:04.674Z,69.60
2019-04-30T02:09:34.005Z,69.70
2019-04-30T02:12:03.201Z,69.80
2019-04-30T02:14:32.471Z,69.80
2019-04-30T02:17:01.696Z,69.80
2019-04-30T02:19:31.245Z,69.90
2019-04-30T02:22:00.523Z,69.90
2019-04-30T02:24:30.083Z,70.00
2019-04-30T02:26:59.502Z,70.10
2019-04-30T02:29:29.740Z,70.10
2019-04-30T02:32:00.566Z,70.20
2019-04-30T02:34:31.646Z,70.20
2019-04-30T02:37:09.816Z,70.30
2019-04-30T02:39:40.267Z,70.30
2019-04-30T02:42:09.624Z,70.40
2019-04-30T02:44:41.062Z,70.10
2019-04-30T02:47:10.708Z,70.10
2019-04-30T02:49:40.391Z,70.40
2019-04-30T02:52:09.601Z,70.50
2019-04-30T02:54:39.633Z,70.70
2019-04-30T02:57:11.660Z,70.80
2019-04-30T02:59:59.943Z,70.90
2019-04-30T03:02:29.992Z,70.90
2019-04-30T03:05:00.248Z,71.00
2019-04-30T03:07:29.758Z,71.20
2019-04-30T03:09:59.793Z,71.40
2019-04-30T03:12:33.191Z,71.70
2019-04-30T03:15:00.560Z,71.70
2019-04-30T03:17:34.148Z,71.80
2019-04-30T03:20:05.299Z,71.80
2019-04-30T03:22:34.557Z,71.80
2019-04-30T03:25:05.110Z,72.00
2019-04-30T03:27:33.710Z,72.00
2019-04-30T03:30:03.418Z,71.70
2019-04-30T03:32:36.750Z,71.70
2019-04-30T03:35:03.829Z,71.80
2019-04-30T03:37:33.080Z,72.00
2019-04-30T03:40:02.485Z,72.20
2019-04-30T03:42:31.711Z,72.30
2019-04-30T03:45:00.962Z,72.40
2019-04-30T03:47:30.316Z,72.50
2019-04-30T03:50:00.097Z,72.50
2019-04-30T03:52:29.486Z,72.60
2019-04-30T03:54:59.611Z,72.60
2019-04-30T03:57:30.421Z,72.80
2019-04-30T03:59:59.689Z,72.80
2019-04-30T04:02:33.094Z,72.90
2019-04-30T04:05:12.778Z,72.90
2019-04-30T04:07:43.774Z,72.90
2019-04-30T04:10:20.600Z,72.80
2019-04-30T04:12:50.041Z,72.90
2019-04-30T04:15:19.929Z,73.10
2019-04-30T04:17:50.406Z,73.20
2019-04-30T04:20:20.327Z,73.30
2019-04-30T04:22:49.994Z,73.30
2019-04-30T04:25:20.487Z,73.20
2019-04-30T04:27:50.833Z,73.30
2019-04-30T04:30:21.987Z,72.90
2019-04-30T04:32:51.459Z,72.90
2019-04-30T04:35:20.712Z,73.20
2019-04-30T04:37:49.984Z,73.40
2019-04-30T04:40:20.974Z,73.50
2019-04-30T04:42:50.164Z,73.50
2019-04-30T04:45:19.953Z,73.70
2019-04-30T04:47:50.358Z,73.80
2019-04-30T04:50:20.095Z,73.80
2019-04-30T04:52:49.834Z,73.60
2019-04-30T04:55:22.217Z,73.50
2019-04-30T04:58:01.828Z,73.70
2019-04-30T05:01:11.772Z,73.70
2019-04-30T05:14:52.821Z,73.90
2019-04-30T05:17:32.189Z,73.90
2019-04-30T05:20:19.898Z,74.10
2019-04-30T05:25:32.540Z,74.20
2019-04-30T05:30:51.270Z,74.00
2019-04-30T05:33:21.074Z,74.00
2019-04-30T05:35:50.383Z,74.10
2019-04-30T05:38:20.022Z,74.00
2019-04-30T05:40:49.644Z,73.80
2019-04-30T05:43:19.332Z,73.90
2019-04-30T05:45:51.314Z,73.80
2019-04-30T05:48:25.521Z,73.80
2019-04-30T05:50:56.275Z,73.80
2019-04-30T05:53:28.653Z,73.90
2019-04-30T05:55:59.311Z,73.70
2019-04-30T05:58:30.036Z,73.60
2019-04-30T06:01:00.010Z,73.30
2019-04-30T06:03:32.838Z,73.30
2019-04-30T06:06:00.534Z,73.20
2019-04-30T06:08:34.612Z,73.10
2019-04-30T06:11:11.529Z,73.10
2019-04-30T06:13:45.362Z,73.10
2019-04-30T06:16:18.707Z,72.90
2019-04-30T06:18:48.556Z,72.70
2019-04-30T06:21:21.293Z,72.20
2019-04-30T06:23:49.274Z,72.00
2019-04-30T06:26:20.683Z,72.00
2019-04-30T06:28:52.203Z,71.80
2019-04-30T06:31:32.390Z,71.70
2019-04-30T06:33:58.617Z,71.50
2019-04-30T06:36:31.888Z,71.90
2019-04-30T06:47:41.908Z,70.20
2019-04-30T06:53:13.871Z,70.00
2019-04-30T07:13:18.851Z,69.10
2019-04-30T07:16:11.006Z,68.90
2019-04-30T07:18:40.575Z,68.90
2019-04-30T07:23:49.744Z,68.40
2019-04-30T07:26:40.404Z,68.10
2019-04-30T07:29:11.016Z,68.00
2019-04-30T07:31:40.485Z,68.10
2019-04-30T07:37:14.594Z,67.60
2019-04-30T07:39:34.917Z,67.40
2019-04-30T07:42:09.308Z,67.20
2019-04-30T07:44:39.777Z,67.10
2019-04-30T07:47:10.107Z,66.70
2019-04-30T07:49:49.908Z,66.60
2019-04-30T07:52:12.074Z,66.60
2019-04-30T07:55:09.811Z,66.90
2019-04-30T07:57:43.024Z,66.80
2019-04-30T08:08:34.262Z,66.30
2019-04-30T08:16:45.763Z,66.70
2019-04-30T08:47:03.706Z,67.90
2019-04-30T08:49:33.361Z,68.00
2019-04-30T08:52:10.913Z,68.10
2019-04-30T08:54:49.751Z,68.30
2019-04-30T09:36:49.004Z,69.40
2019-04-30T09:39:19.919Z,69.40
2019-04-30T09:41:49.654Z,69.50
2019-04-30T09:44:25.685Z,69.50
2019-04-30T09:46:56.328Z,69.40
2019-04-30T09:52:19.347Z,69.00
2019-04-30T09:54:49.961Z,69.00
2019-04-30T09:57:21.915Z,69.10
2019-04-30T09:59:57.089Z,69.10
2019-04-30T10:02:32.261Z,69.20
2019-04-30T10:05:07.113Z,69.00
2019-04-30T10:52:42.729Z,66.30
2019-04-30T10:55:12.054Z,66.40
2019-04-30T10:57:41.257Z,66.50
2019-04-30T11:00:15.238Z,66.80
2019-04-30T11:02:44.556Z,66.80
2019-04-30T11:05:13.778Z,66.60
2019-04-30T11:16:15.667Z,66.10
2019-04-30T11:18:45.452Z,66.00
2019-04-30T11:21:15.207Z,66.70
2019-04-30T11:23:44.800Z,65.70
2019-04-30T11:26:15.078Z,66.00
2019-04-30T11:28:44.311Z,66.20
2019-04-30T11:31:24.675Z,66.10
2019-04-30T11:34:02.226Z,66.00
2019-04-30T11:36:33.334Z,65.80
2019-04-30T11:39:03.647Z,65.80
2019-04-30T11:41:33.401Z,65.60
2019-04-30T11:44:03.037Z,65.50
2019-04-30T11:46:59.872Z,65.50
2019-04-30T11:49:31.099Z,65.60
2019-04-30T11:52:00.746Z,65.40
2019-04-30T11:54:30.280Z,65.10
2019-04-30T11:56:59.713Z,65.00
2019-04-30T11:59:47.631Z,64.70
2019-04-30T12:02:19.071Z,64.30
2019-04-30T12:07:28.169Z,63.70
2019-04-30T12:10:14.205Z,63.50
2019-04-30T12:12:43.480Z,63.50
2019-04-30T12:42:25.415Z,62.00
2019-04-30T12:43:48.577Z,61.50
2019-04-30T13:04:49.078Z,61.90
2019-04-30T13:07:20.617Z,61.10
2019-04-30T13:20:43.733Z,59.40
2019-04-30T14:27:13.896Z,60.10
2019-04-30T14:29:43.233Z,60.00
2019-04-30T14:32:12.438Z,59.90
2019-04-30T14:34:41.633Z,59.70
2019-04-30T14:37:10.988Z,59.40
2019-04-30T14:39:40.528Z,59.40
2019-04-30T14:42:11.799Z,59.30
2019-04-30T14:44:43.818Z,59.20
2019-04-30T14:47:15.898Z,59.50
2019-04-30T14:49:59.724Z,59.50
2019-04-30T14:52:21.489Z,59.60
2019-04-30T14:54:58.783Z,59.70
2019-04-30T14:57:45.843Z,59.70
2019-04-30T15:00:17.183Z,59.90
2019-04-30T15:02:52.060Z,59.80
2019-04-30T15:05:22.207Z,59.90
2019-04-30T15:07:51.397Z,59.80
2019-04-30T15:10:20.648Z,59.80
2019-04-30T15:12:49.928Z,59.50
2019-04-30T15:15:19.290Z,59.60
2019-04-30T15:17:49.308Z,59.50
2019-04-30T15:20:19.815Z,59.60
2019-04-30T15:22:53.569Z,59.60
2019-04-30T15:25:22.887Z,59.50
2019-04-30T15:27:52.196Z,59.50
2019-04-30T15:30:22.012Z,59.60
2019-04-30T15:32:52.978Z,59.80
2019-04-30T15:35:22.257Z,59.80
2019-04-30T15:37:53.180Z,59.80
2019-04-30T15:40:22.568Z,60.00
2019-04-30T15:42:53.730Z,60.20
2019-04-30T15:45:23.152Z,60.40
2019-04-30T15:47:52.341Z,60.60
2019-04-30T15:50:21.547Z,60.80
2019-04-30T15:52:50.844Z,60.80
2019-04-30T15:55:20.149Z,60.70
2019-04-30T15:57:59.855Z,60.80
2019-04-30T16:00:31.283Z,60.60
2019-04-30T16:03:14.003Z,60.70
2019-04-30T16:05:45.004Z,60.50
2019-04-30T16:08:33.442Z,60.50
2019-04-30T16:11:10.361Z,60.60
2019-04-30T16:13:45.808Z,61.10
2019-04-30T16:16:15.194Z,61.30
2019-04-30T16:18:46.090Z,61.40
2019-04-30T16:21:15.312Z,61.30
2019-04-30T16:23:44.680Z,61.40
2019-04-30T16:26:14.188Z,61.80
2019-04-30T16:28:43.525Z,61.80
2019-04-30T16:31:12.819Z,62.00
2019-04-30T16:33:42.144Z,62.00
2019-04-30T16:36:11.349Z,62.20
2019-04-30T16:38:40.638Z,62.30
2019-04-30T16:41:10.145Z,62.30
2019-04-30T16:43:39.368Z,62.40
2019-04-30T16:46:17.102Z,62.50
2019-04-30T16:48:55.562Z,63.40
2019-04-30T16:51:30.648Z,62.70
2019-04-30T16:54:08.648Z,62.70
2019-04-30T16:56:40.189Z,62.70
2019-04-30T16:59:14.109Z,62.90
2019-04-30T17:01:56.642Z,62.80
2019-04-30T17:04:31.952Z,63.00
2019-04-30T17:07:03.018Z,63.20
2019-04-30T17:09:54.592Z,63.20
2019-04-30T17:12:26.034Z,63.60
2019-04-30T17:15:14.730Z,63.60
2019-04-30T17:17:49.609Z,63.80
2019-04-30T17:20:20.860Z,63.70
2019-04-30T17:22:50.528Z,63.80
2019-04-30T17:25:24.479Z,63.90
2019-04-30T17:27:55.219Z,63.80
2019-04-30T17:30:26.197Z,63.90
2019-04-30T17:35:35.656Z,64.30
2019-04-30T17:38:04.908Z,64.10
2019-04-30T17:40:34.095Z,64.10
2019-04-30T17:43:03.400Z,64.50
2019-04-30T17:45:35.677Z,64.60
2019-04-30T17:48:09.849Z,64.80
2019-04-30T17:50:39.712Z,65.00
2019-04-30T17:53:09.173Z,65.10
2019-04-30T17:55:44.721Z,65.10
2019-04-30T17:58:22.306Z,65.30
2019-04-30T18:00:53.309Z,65.30
2019-04-30T18:03:25.812Z,65.30
2019-04-30T18:05:59.170Z,65.40
2019-04-30T18:08:28.565Z,65.60
2019-04-30T18:10:57.841Z,65.60
2019-04-30T18:13:30.103Z,65.50
2019-04-30T18:16:00.459Z,65.30
2019-04-30T18:18:35.724Z,65.10
2019-04-30T18:21:21.621Z,65.00
2019-04-30T18:23:52.715Z,65.00
2019-04-30T18:26:30.074Z,65.00
2019-04-30T18:28:59.508Z,65.00
2019-04-30T18:31:29.821Z,64.90
2019-04-30T18:33:59.413Z,64.90
2019-04-30T18:36:29.432Z,64.80
2019-04-30T18:38:59.048Z,65.00
2019-04-30T18:41:38.259Z,65.00
2019-04-30T18:44:09.465Z,65.10
2019-04-30T18:46:39.115Z,65.20
2019-04-30T18:49:11.298Z,65.30
2019-04-30T18:51:42.627Z,65.30
2019-04-30T18:54:11.797Z,65.40
2019-04-30T18:56:41.423Z,65.50
2019-04-30T18:59:32.630Z,65.50
2019-04-30T19:02:01.357Z,65.30
2019-04-30T19:04:40.894Z,65.30
2019-04-30T19:07:31.178Z,65.30
2019-04-30T19:10:02.043Z,65.40
2019-04-30T19:12:42.608Z,65.30
2019-04-30T19:15:15.904Z,65.50
2019-04-30T19:17:57.245Z,65.50
2019-04-30T19:20:28.722Z,65.30
2019-04-30T19:22:58.164Z,65.50
2019-04-30T19:25:28.900Z,65.50
2019-04-30T19:28:09.620Z,65.60
2019-04-30T19:30:32.371Z,65.70
2019-04-30T19:33:00.678Z,65.80
2019-04-30T19:35:30.127Z,65.90
2019-04-30T19:38:00.051Z,66.00
2019-04-30T19:40:30.526Z,66.10
2019-04-30T19:43:00.187Z,66.20
2019-04-30T19:45:29.813Z,66.10
2019-04-30T19:47:59.489Z,66.20
2019-04-30T19:50:29.128Z,66.30
2019-04-30T19:52:58.973Z,66.50
2019-04-30T19:55:28.648Z,66.50
2019-04-30T19:57:59.869Z,66.60
2019-04-30T20:00:31.050Z,66.60
2019-04-30T20:03:00.748Z,66.70
2019-04-30T20:05:30.141Z,66.90
2019-04-30T20:08:02.708Z,67.10
2019-04-30T20:10:32.040Z,67.40
2019-04-30T20:13:01.306Z,67.60
2019-04-30T20:15:30.543Z,67.80
2019-04-30T20:18:01.049Z,68.00
2019-04-30T20:20:30.484Z,68.00
2019-04-30T20:23:01.319Z,68.30
2019-04-30T20:25:30.620Z,68.50
2019-04-30T20:27:59.981Z,68.70
2019-04-30T20:30:29.325Z,69.00
2019-04-30T20:32:59.398Z,69.00
2019-04-30T20:35:28.864Z,69.30
2019-04-30T20:38:16.098Z,69.30
2019-04-30T20:40:57.719Z,69.60
2019-04-30T20:43:18.658Z,69.70
2019-04-30T20:45:48.075Z,70.00
2019-04-30T20:48:18.805Z,70.00
2019-04-30T20:50:48.109Z,70.30
2019-04-30T20:53:17.401Z,70.40
2019-04-30T20:55:46.833Z,70.60
2019-04-30T20:58:16.208Z,70.70
2019-04-30T21:00:45.586Z,70.90
2019-04-30T21:03:14.925Z,71.00
2019-04-30T21:05:44.300Z,71.10
2019-04-30T21:08:13.541Z,71.10
2019-04-30T21:10:42.883Z,71.30
2019-04-30T21:13:12.423Z,71.40
2019-04-30T21:15:41.759Z,71.40
2019-04-30T21:18:11.400Z,71.60
2019-04-30T21:20:41.230Z,71.80
2019-04-30T21:23:10.844Z,71.80
2019-04-30T21:25:40.946Z,71.90
2019-04-30T21:28:10.350Z,72.00
2019-04-30T21:30:40.273Z,72.00
2019-04-30T21:33:14.105Z,72.20
2019-04-30T21:35:45.961Z,72.20
2019-04-30T21:38:16.020Z,72.30
2019-04-30T21:40:45.292Z,72.50
2019-04-30T21:43:14.609Z,72.60
2019-04-30T21:45:43.914Z,72.60
2019-04-30T21:48:13.833Z,72.70
2019-04-30T21:50:43.132Z,72.80
2019-04-30T21:53:12.354Z,72.80
2019-04-30T21:55:41.928Z,72.90
2019-04-30T21:58:11.263Z,73.00
2019-04-30T22:00:42.205Z,73.10
2019-04-30T22:03:11.562Z,73.20
2019-04-30T22:05:40.867Z,73.20
2019-04-30T22:08:10.410Z,73.40
2019-04-30T22:10:39.633Z,73.40
2019-04-30T22:13:09.083Z,73.40
2019-04-30T22:15:38.563Z,73.50
2019-04-30T22:18:07.816Z,73.60
2019-04-30T22:20:38.869Z,73.70
2019-04-30T22:23:08.192Z,73.80
2019-04-30T22:25:39.281Z,73.80
2019-04-30T22:28:08.535Z,74.10
2019-04-30T22:30:37.888Z,74.00
2019-04-30T22:33:08.958Z,74.20
2019-04-30T22:35:45.769Z,74.30
2019-04-30T22:38:18.945Z,74.40
2019-04-30T22:40:48.846Z,74.40
2019-04-30T22:43:18.210Z,74.50
2019-04-30T22:45:49.910Z,74.50
2019-04-30T22:48:19.149Z,74.70
2019-04-30T22:50:48.384Z,74.80
2019-04-30T22:53:17.608Z,74.90
2019-04-30T22:55:46.823Z,75.00
2019-04-30T22:58:16.166Z,75.20
2019-04-30T23:00:46.960Z,75.20
2019-04-30T23:03:17.794Z,75.30
2019-04-30T23:05:47.030Z,75.20
2019-04-30T23:08:16.231Z,75.30
2019-04-30T23:10:45.584Z,75.40
2019-04-30T23:13:14.843Z,75.50
2019-04-30T23:15:44.243Z,75.60
2019-04-30T23:18:13.577Z,75.70
2019-04-30T23:20:42.844Z,75.70
2019-04-30T23:23:12.184Z,75.90
2019-04-30T23:25:41.418Z,75.90
2019-04-30T23:28:10.933Z,76.00
2019-04-30T23:30:40.206Z,76.00
2019-04-30T23:33:09.528Z,76.00
2019-04-30T23:35:38.928Z,76.20
2019-04-30T23:38:08.202Z,76.30
2019-04-30T23:40:52.096Z,76.40
2019-04-30T23:43:21.406Z,76.40
2019-04-30T23:45:50.717Z,76.60
2019-04-30T23:48:20.115Z,76.70
2019-04-30T23:50:49.333Z,76.70
2019-04-30T23:53:18.570Z,76.70
2019-04-30T23:55:47.878Z,76.70
2019-04-30T23:58:17.141Z,76.90
